sensor_id;sensor_type;location;lat;lon;timestamp;pressure;altitude;pressure_sealevel;temperature
75658;BMP280;64255;49.892;17.884;2022-11-15T00:01:16;99012.13;;;0.55
75658;BMP280;64255;49.892;17.884;2022-11-15T00:03:45;99015.72;;;0.60
75658;BMP280;64255;49.892;17.884;2022-11-15T00:06:12;99014.75;;;0.36
75658;BMP280;64255;49.892;17.884;2022-11-15T00:08:39;99009.66;;;0.31
75658;BMP280;64255;49.892;17.884;2022-11-15T00:11:09;99010.31;;;0.23
75658;BMP280;64255;49.892;17.884;2022-11-15T00:13:38;99013.81;;;0.32
75658;BMP280;64255;49.892;17.884;2022-11-15T00:16:05;99017.69;;;0.35
75658;BMP280;64255;49.892;17.884;2022-11-15T00:18:33;99003.84;;;0.34
75658;BMP280;64255;49.892;17.884;2022-11-15T00:21:10;99002.69;;;0.40
75658;BMP280;64255;49.892;17.884;2022-11-15T00:23:37;99003.56;;;0.36
75658;BMP280;64255;49.892;17.884;2022-11-15T00:26:05;99004.03;;;0.38
75658;BMP280;64255;49.892;17.884;2022-11-15T00:28:32;98994.94;;;0.35
75658;BMP280;64255;49.892;17.884;2022-11-15T00:31:13;98996.19;;;0.24
75658;BMP280;64255;49.892;17.884;2022-11-15T00:33:44;98991.56;;;0.35
75658;BMP280;64255;49.892;17.884;2022-11-15T00:36:11;98994.00;;;0.31
75658;BMP280;64255;49.892;17.884;2022-11-15T00:38:39;98984.31;;;0.32
75658;BMP280;64255;49.892;17.884;2022-11-15T00:41:07;98979.88;;;0.32
75658;BMP280;64255;49.892;17.884;2022-11-15T00:43:35;98985.84;;;0.19
75658;BMP280;64255;49.892;17.884;2022-11-15T00:46:03;98979.88;;;0.32
75658;BMP280;64255;49.892;17.884;2022-11-15T00:48:31;98985.47;;;0.25
75658;BMP280;64255;49.892;17.884;2022-11-15T00:50:58;98990.69;;;0.25
75658;BMP280;64255;49.892;17.884;2022-11-15T00:53:26;98979.34;;;0.16
75658;BMP280;64255;49.892;17.884;2022-11-15T00:55:54;98983.06;;;0.29
75658;BMP280;64255;49.892;17.884;2022-11-15T00:58:21;98971.63;;;0.39
75658;BMP280;64255;49.892;17.884;2022-11-15T01:00:48;98966.63;;;0.43
75658;BMP280;64255;49.892;17.884;2022-11-15T01:03:16;98963.63;;;0.49
75658;BMP280;64255;49.892;17.884;2022-11-15T01:05:43;98957.22;;;0.41
75658;BMP280;64255;49.892;17.884;2022-11-15T01:08:17;98958.78;;;0.43
75658;BMP280;64255;49.892;17.884;2022-11-15T01:10:44;98946.13;;;0.50
75658;BMP280;64255;49.892;17.884;2022-11-15T01:13:11;98950.78;;;0.53
75658;BMP280;64255;49.892;17.884;2022-11-15T01:15:42;98950.38;;;0.60
75658;BMP280;64255;49.892;17.884;2022-11-15T01:18:10;98950.97;;;0.57
75658;BMP280;64255;49.892;17.884;2022-11-15T01:20:41;98959.06;;;0.41
75658;BMP280;64255;49.892;17.884;2022-11-15T01:23:09;98951.03;;;0.23
75658;BMP280;64255;49.892;17.884;2022-11-15T01:25:37;98961.69;;;0.08
75658;BMP280;64255;49.892;17.884;2022-11-15T01:28:04;98950.56;;;-0.17
75658;BMP280;64255;49.892;17.884;2022-11-15T01:30:31;98948.38;;;-0.29
75658;BMP280;64255;49.892;17.884;2022-11-15T01:32:58;98944.06;;;-0.39
75658;BMP280;64255;49.892;17.884;2022-11-15T01:35:26;98954.50;;;-0.39
75658;BMP280;64255;49.892;17.884;2022-11-15T01:37:53;98943.59;;;-0.22
75658;BMP280;64255;49.892;17.884;2022-11-15T01:40:20;98948.00;;;-0.42
75658;BMP280;64255;49.892;17.884;2022-11-15T01:42:48;98935.34;;;-0.29
75658;BMP280;64255;49.892;17.884;2022-11-15T01:45:16;98939.28;;;-0.12
75658;BMP280;64255;49.892;17.884;2022-11-15T01:47:50;98928.31;;;-0.34
75658;BMP280;64255;49.892;17.884;2022-11-15T01:50:28;98926.44;;;-0.09
75658;BMP280;64255;49.892;17.884;2022-11-15T01:52:57;98927.56;;;-0.15
75658;BMP280;64255;49.892;17.884;2022-11-15T01:55:27;98919.84;;;-0.20
75658;BMP280;64255;49.892;17.884;2022-11-15T01:58:00;98917.78;;;-0.23
75658;BMP280;64255;49.892;17.884;2022-11-15T02:00:31;98919.41;;;-0.28
75658;BMP280;64255;49.892;17.884;2022-11-15T02:02:59;98911.31;;;-0.26
75658;BMP280;64255;49.892;17.884;2022-11-15T02:05:26;98910.25;;;-0.25
75658;BMP280;64255;49.892;17.884;2022-11-15T02:07:54;98905.94;;;-0.16
75658;BMP280;64255;49.892;17.884;2022-11-15T02:10:24;98893.41;;;0.01
75658;BMP280;64255;49.892;17.884;2022-11-15T02:12:53;98886.81;;;-0.11
75658;BMP280;64255;49.892;17.884;2022-11-15T02:15:21;98890.59;;;-0.03
75658;BMP280;64255;49.892;17.884;2022-11-15T02:24:25;98878.59;;;0.29
75658;BMP280;64255;49.892;17.884;2022-11-15T02:26:52;98886.88;;;0.17
75658;BMP280;64255;49.892;17.884;2022-11-15T02:36:00;98883.34;;;-0.06
75658;BMP280;64255;49.892;17.884;2022-11-15T02:41:23;98888.25;;;-0.05
75658;BMP280;64255;49.892;17.884;2022-11-15T02:44:17;98885.59;;;0.01
75658;BMP280;64255;49.892;17.884;2022-11-15T02:49:58;98870.31;;;-0.25
75658;BMP280;64255;49.892;17.884;2022-11-15T02:52:26;98866.25;;;-0.32
75658;BMP280;64255;49.892;17.884;2022-11-15T02:54:59;98865.94;;;-0.30
75658;BMP280;64255;49.892;17.884;2022-11-15T02:58:05;98857.97;;;-0.39
75658;BMP280;64255;49.892;17.884;2022-11-15T03:07:11;98852.91;;;-0.30
75658;BMP280;64255;49.892;17.884;2022-11-15T03:10:02;98851.78;;;-0.24
75658;BMP280;64255;49.892;17.884;2022-11-15T03:12:57;98856.91;;;-0.19
75658;BMP280;64255;49.892;17.884;2022-11-15T03:15:43;98860.81;;;-0.02
75658;BMP280;64255;49.892;17.884;2022-11-15T03:18:27;98860.41;;;-0.09
75658;BMP280;64255;49.892;17.884;2022-11-15T03:21:01;98846.97;;;-0.17
75658;BMP280;64255;49.892;17.884;2022-11-15T03:23:31;98853.72;;;-0.35
75658;BMP280;64255;49.892;17.884;2022-11-15T03:26:00;98853.41;;;-0.28
75658;BMP280;64255;49.892;17.884;2022-11-15T03:28:54;98848.75;;;-0.31
75658;BMP280;64255;49.892;17.884;2022-11-15T03:31:26;98848.50;;;-0.35
75658;BMP280;64255;49.892;17.884;2022-11-15T03:33:58;98840.66;;;-0.30
75658;BMP280;64255;49.892;17.884;2022-11-15T03:36:32;98839.41;;;-0.37
75658;BMP280;64255;49.892;17.884;2022-11-15T03:39:06;98833.03;;;-0.45
75658;BMP280;64255;49.892;17.884;2022-11-15T03:41:40;98844.94;;;-0.39
75658;BMP280;64255;49.892;17.884;2022-11-15T03:50:07;98827.53;;;-0.10
75658;BMP280;64255;49.892;17.884;2022-11-15T03:52:35;98831.63;;;-0.04
75658;BMP280;64255;49.892;17.884;2022-11-15T03:55:38;98824.47;;;0.02
75658;BMP280;64255;49.892;17.884;2022-11-15T03:58:06;98819.59;;;-0.19
75658;BMP280;64255;49.892;17.884;2022-11-15T04:00:33;98816.00;;;-0.23
75658;BMP280;64255;49.892;17.884;2022-11-15T04:03:00;98809.34;;;-0.30
75658;BMP280;64255;49.892;17.884;2022-11-15T04:05:26;98810.03;;;-0.43
75658;BMP280;64255;49.892;17.884;2022-11-15T04:07:54;98807.28;;;-0.33
75658;BMP280;64255;49.892;17.884;2022-11-15T04:10:21;98805.47;;;-0.51
75658;BMP280;64255;49.892;17.884;2022-11-15T04:12:49;98808.56;;;-0.30
75658;BMP280;64255;49.892;17.884;2022-11-15T04:15:21;98805.47;;;-0.32
75658;BMP280;64255;49.892;17.884;2022-11-15T04:17:55;98800.06;;;-0.22
75658;BMP280;64255;49.892;17.884;2022-11-15T04:20:28;98796.88;;;-0.19
75658;BMP280;64255;49.892;17.884;2022-11-15T04:22:58;98794.78;;;-0.17
75658;BMP280;64255;49.892;17.884;2022-11-15T04:25:25;98794.66;;;-0.25
75658;BMP280;64255;49.892;17.884;2022-11-15T04:27:52;98790.69;;;-0.23
75658;BMP280;64255;49.892;17.884;2022-11-15T04:30:20;98795.13;;;-0.23
75658;BMP280;64255;49.892;17.884;2022-11-15T04:32:47;98783.25;;;-0.30
75658;BMP280;64255;49.892;17.884;2022-11-15T04:35:14;98781.94;;;-0.13
75658;BMP280;64255;49.892;17.884;2022-11-15T04:37:41;98785.56;;;-0.28
75658;BMP280;64255;49.892;17.884;2022-11-15T04:40:09;98769.97;;;-0.33
75658;BMP280;64255;49.892;17.884;2022-11-15T04:42:36;98773.97;;;-0.22
75658;BMP280;64255;49.892;17.884;2022-11-15T04:45:04;98772.50;;;-0.28
75658;BMP280;64255;49.892;17.884;2022-11-15T04:47:31;98760.44;;;-0.57
75658;BMP280;64255;49.892;17.884;2022-11-15T04:49:59;98756.84;;;-0.61
75658;BMP280;64255;49.892;17.884;2022-11-15T04:52:26;98769.09;;;-0.62
75658;BMP280;64255;49.892;17.884;2022-11-15T04:54:52;98761.22;;;-0.57
75658;BMP280;64255;49.892;17.884;2022-11-15T04:57:20;98762.06;;;-0.28
75658;BMP280;64255;49.892;17.884;2022-11-15T04:59:47;98771.53;;;-0.32
75658;BMP280;64255;49.892;17.884;2022-11-15T05:02:15;98763.88;;;-0.43
75658;BMP280;64255;49.892;17.884;2022-11-15T05:04:41;98766.63;;;-0.53
75658;BMP280;64255;49.892;17.884;2022-11-15T05:07:09;98760.81;;;-0.64
75658;BMP280;64255;49.892;17.884;2022-11-15T05:09:36;98759.56;;;-0.52
75658;BMP280;64255;49.892;17.884;2022-11-15T05:12:03;98766.50;;;-0.62
75658;BMP280;64255;49.892;17.884;2022-11-15T05:14:30;98763.03;;;-0.57
75658;BMP280;64255;49.892;17.884;2022-11-15T05:16:58;98763.94;;;-0.48
75658;BMP280;64255;49.892;17.884;2022-11-15T05:19:25;98759.41;;;-0.42
75658;BMP280;64255;49.892;17.884;2022-11-15T05:21:52;98758.38;;;-0.41
75658;BMP280;64255;49.892;17.884;2022-11-15T05:24:19;98762.81;;;-0.42
75658;BMP280;64255;49.892;17.884;2022-11-15T05:26:46;98757.66;;;-0.47
75658;BMP280;64255;49.892;17.884;2022-11-15T05:29:12;98754.09;;;-0.51
75658;BMP280;64255;49.892;17.884;2022-11-15T05:31:41;98753.44;;;-0.43
75658;BMP280;64255;49.892;17.884;2022-11-15T05:34:08;98750.69;;;-0.32
75658;BMP280;64255;49.892;17.884;2022-11-15T05:36:42;98751.03;;;-0.39
75658;BMP280;64255;49.892;17.884;2022-11-15T05:39:09;98744.41;;;-0.31
75658;BMP280;64255;49.892;17.884;2022-11-15T05:41:46;98750.59;;;-0.27
75658;BMP280;64255;49.892;17.884;2022-11-15T05:44:19;98748.75;;;-0.26
75658;BMP280;64255;49.892;17.884;2022-11-15T05:46:50;98744.69;;;-0.33
75658;BMP280;64255;49.892;17.884;2022-11-15T05:49:23;98743.25;;;-0.25
75658;BMP280;64255;49.892;17.884;2022-11-15T05:51:54;98747.69;;;-0.25
75658;BMP280;64255;49.892;17.884;2022-11-15T05:54:23;98749.63;;;-0.17
75658;BMP280;64255;49.892;17.884;2022-11-15T05:56:51;98748.59;;;-0.02
75658;BMP280;64255;49.892;17.884;2022-11-15T05:59:19;98741.63;;;0.07
75658;BMP280;64255;49.892;17.884;2022-11-15T06:01:47;98737.19;;;0.22
75658;BMP280;64255;49.892;17.884;2022-11-15T06:04:14;98732.22;;;0.34
75658;BMP280;64255;49.892;17.884;2022-11-15T06:06:41;98736.00;;;0.42
75658;BMP280;64255;49.892;17.884;2022-11-15T06:09:09;98737.91;;;0.50
75658;BMP280;64255;49.892;17.884;2022-11-15T06:11:36;98734.03;;;0.62
75658;BMP280;64255;49.892;17.884;2022-11-15T06:14:03;98736.88;;;0.74
75658;BMP280;64255;49.892;17.884;2022-11-15T06:16:30;98732.13;;;0.76
75658;BMP280;64255;49.892;17.884;2022-11-15T06:18:57;98736.19;;;0.82
75658;BMP280;64255;49.892;17.884;2022-11-15T06:21:25;98735.78;;;0.89
75658;BMP280;64255;49.892;17.884;2022-11-15T06:23:51;98739.25;;;0.99
75658;BMP280;64255;49.892;17.884;2022-11-15T06:26:19;98739.72;;;1.01
75658;BMP280;64255;49.892;17.884;2022-11-15T06:28:46;98743.06;;;1.15
75658;BMP280;64255;49.892;17.884;2022-11-15T06:31:13;98740.97;;;1.26
75658;BMP280;64255;49.892;17.884;2022-11-15T06:33:40;98742.28;;;1.46
75658;BMP280;64255;49.892;17.884;2022-11-15T06:36:12;98751.13;;;1.59
75658;BMP280;64255;49.892;17.884;2022-11-15T06:38:39;98751.41;;;1.80
75658;BMP280;64255;49.892;17.884;2022-11-15T06:41:09;98750.66;;;1.98
75658;BMP280;64255;49.892;17.884;2022-11-15T06:43:37;98745.97;;;2.17
75658;BMP280;64255;49.892;17.884;2022-11-15T06:46:06;98747.13;;;2.87
75658;BMP280;64255;49.892;17.884;2022-11-15T06:48:34;98745.16;;;4.09
75658;BMP280;64255;49.892;17.884;2022-11-15T06:51:04;98740.50;;;3.46
75658;BMP280;64255;49.892;17.884;2022-11-15T06:53:32;98736.88;;;3.20
75658;BMP280;64255;49.892;17.884;2022-11-15T06:56:03;98741.00;;;3.39
75658;BMP280;64255;49.892;17.884;2022-11-15T06:58:31;98731.66;;;3.59
75658;BMP280;64255;49.892;17.884;2022-11-15T07:01:06;98739.38;;;4.46
75658;BMP280;64255;49.892;17.884;2022-11-15T07:03:39;98738.72;;;5.16
75658;BMP280;64255;49.892;17.884;2022-11-15T07:06:08;98742.81;;;4.92
75658;BMP280;64255;49.892;17.884;2022-11-15T07:08:35;98752.06;;;4.99
75658;BMP280;64255;49.892;17.884;2022-11-15T07:11:05;98744.00;;;5.16
75658;BMP280;64255;49.892;17.884;2022-11-15T07:13:33;98752.94;;;5.37
75658;BMP280;64255;49.892;17.884;2022-11-15T07:16:09;98753.72;;;7.49
75658;BMP280;64255;49.892;17.884;2022-11-15T07:18:39;98745.72;;;7.13
75658;BMP280;64255;49.892;17.884;2022-11-15T07:21:10;98748.00;;;6.83
75658;BMP280;64255;49.892;17.884;2022-11-15T07:23:38;98759.84;;;6.89
75658;BMP280;64255;49.892;17.884;2022-11-15T07:26:07;98745.22;;;7.07
75658;BMP280;64255;49.892;17.884;2022-11-15T07:28:35;98741.03;;;7.38
75658;BMP280;64255;49.892;17.884;2022-11-15T07:31:05;98744.19;;;8.78
75658;BMP280;64255;49.892;17.884;2022-11-15T07:33:34;98743.00;;;8.52
75658;BMP280;64255;49.892;17.884;2022-11-15T07:36:05;98748.72;;;8.54
75658;BMP280;64255;49.892;17.884;2022-11-15T07:38:35;98742.63;;;8.54
75658;BMP280;64255;49.892;17.884;2022-11-15T07:41:05;98752.75;;;8.72
75658;BMP280;64255;49.892;17.884;2022-11-15T07:43:32;98748.00;;;9.04
75658;BMP280;64255;49.892;17.884;2022-11-15T07:46:07;98748.41;;;9.56
75658;BMP280;64255;49.892;17.884;2022-11-15T07:48:36;98744.31;;;9.63
75658;BMP280;64255;49.892;17.884;2022-11-15T07:51:03;98744.81;;;9.72
75658;BMP280;64255;49.892;17.884;2022-11-15T07:53:31;98745.13;;;9.97
75658;BMP280;64255;49.892;17.884;2022-11-15T07:55:58;98750.53;;;10.39
75658;BMP280;64255;49.892;17.884;2022-11-15T07:58:25;98739.09;;;10.72
75658;BMP280;64255;49.892;17.884;2022-11-15T08:00:52;98729.91;;;11.18
75658;BMP280;64255;49.892;17.884;2022-11-15T08:03:18;98721.66;;;11.34
75658;BMP280;64255;49.892;17.884;2022-11-15T08:05:51;98722.59;;;11.68
75658;BMP280;64255;49.892;17.884;2022-11-15T08:08:19;98717.72;;;11.84
75658;BMP280;64255;49.892;17.884;2022-11-15T08:10:46;98712.84;;;12.19
75658;BMP280;64255;49.892;17.884;2022-11-15T08:13:14;98709.06;;;12.45
75658;BMP280;64255;49.892;17.884;2022-11-15T08:15:41;98712.13;;;12.69
75658;BMP280;64255;49.892;17.884;2022-11-15T08:18:13;98709.09;;;12.71
75658;BMP280;64255;49.892;17.884;2022-11-15T08:20:42;98708.69;;;12.94
75658;BMP280;64255;49.892;17.884;2022-11-15T08:23:11;98705.59;;;12.88
75658;BMP280;64255;49.892;17.884;2022-11-15T08:25:39;98712.00;;;13.34
75658;BMP280;64255;49.892;17.884;2022-11-15T08:28:10;98705.63;;;12.99
75658;BMP280;64255;49.892;17.884;2022-11-15T08:30:40;98697.97;;;13.19
75658;BMP280;64255;49.892;17.884;2022-11-15T08:33:13;98707.34;;;13.56
75658;BMP280;64255;49.892;17.884;2022-11-15T08:35:42;98702.91;;;13.17
75658;BMP280;64255;49.892;17.884;2022-11-15T08:38:10;98706.31;;;13.25
75658;BMP280;64255;49.892;17.884;2022-11-15T08:40:38;98703.97;;;13.45
75658;BMP280;64255;49.892;17.884;2022-11-15T08:43:06;98701.88;;;13.85
75658;BMP280;64255;49.892;17.884;2022-11-15T08:45:35;98698.66;;;13.41
75658;BMP280;64255;49.892;17.884;2022-11-15T08:48:03;98694.41;;;13.48
75658;BMP280;64255;49.892;17.884;2022-11-15T08:50:31;98692.06;;;13.68
75658;BMP280;64255;49.892;17.884;2022-11-15T08:53:05;98692.66;;;13.94
75658;BMP280;64255;49.892;17.884;2022-11-15T08:55:38;98690.72;;;13.98
75658;BMP280;64255;49.892;17.884;2022-11-15T08:58:06;98682.72;;;13.98
75658;BMP280;64255;49.892;17.884;2022-11-15T09:00:34;98679.78;;;13.78
75658;BMP280;64255;49.892;17.884;2022-11-15T09:03:05;98682.22;;;13.47
75658;BMP280;64255;49.892;17.884;2022-11-15T09:05:32;98686.69;;;13.75
75658;BMP280;64255;49.892;17.884;2022-11-15T09:08:02;98696.44;;;14.49
75658;BMP280;64255;49.892;17.884;2022-11-15T09:10:29;98702.41;;;14.64
75658;BMP280;64255;49.892;17.884;2022-11-15T09:12:58;98694.81;;;14.62
75658;BMP280;64255;49.892;17.884;2022-11-15T09:15:25;98705.00;;;14.75
75658;BMP280;64255;49.892;17.884;2022-11-15T09:17:52;98703.59;;;14.98
75658;BMP280;64255;49.892;17.884;2022-11-15T09:20:20;98706.88;;;15.47
75658;BMP280;64255;49.892;17.884;2022-11-15T09:22:47;98709.00;;;15.29
75658;BMP280;64255;49.892;17.884;2022-11-15T09:25:14;98706.06;;;15.78
75658;BMP280;64255;49.892;17.884;2022-11-15T09:27:41;98695.63;;;15.29
75658;BMP280;64255;49.892;17.884;2022-11-15T09:30:09;98700.06;;;15.08
75658;BMP280;64255;49.892;17.884;2022-11-15T09:32:36;98697.44;;;15.04
75658;BMP280;64255;49.892;17.884;2022-11-15T09:35:03;98693.47;;;14.82
75658;BMP280;64255;49.892;17.884;2022-11-15T09:37:32;98695.19;;;15.34
75658;BMP280;64255;49.892;17.884;2022-11-15T09:39:59;98693.03;;;15.21
75658;BMP280;64255;49.892;17.884;2022-11-15T09:50:49;98676.44;;;14.26
75658;BMP280;64255;49.892;17.884;2022-11-15T09:53:37;98673.84;;;14.08
75658;BMP280;64255;49.892;17.884;2022-11-15T09:56:31;98661.91;;;13.71
75658;BMP280;64255;49.892;17.884;2022-11-15T10:02:14;98652.06;;;13.61
75658;BMP280;64255;49.892;17.884;2022-11-15T10:04:46;98659.72;;;13.55
75658;BMP280;64255;49.892;17.884;2022-11-15T10:10:07;98641.91;;;13.34
75658;BMP280;64255;49.892;17.884;2022-11-15T10:12:36;98646.88;;;13.28
75658;BMP280;64255;49.892;17.884;2022-11-15T10:15:13;98638.50;;;13.22
75658;BMP280;64255;49.892;17.884;2022-11-15T10:20:30;98629.47;;;12.98
75658;BMP280;64255;49.892;17.884;2022-11-15T10:23:05;98628.75;;;12.94
75658;BMP280;64255;49.892;17.884;2022-11-15T10:25:34;98628.31;;;12.95
75658;BMP280;64255;49.892;17.884;2022-11-15T10:30:54;98612.03;;;12.75
75658;BMP280;64255;49.892;17.884;2022-11-15T10:33:35;98616.22;;;12.73
75658;BMP280;64255;49.892;17.884;2022-11-15T10:44:30;98600.25;;;12.80
75658;BMP280;64255;49.892;17.884;2022-11-15T10:49:27;98587.28;;;12.82
75658;BMP280;64255;49.892;17.884;2022-11-15T10:52:18;98583.09;;;12.77
75658;BMP280;64255;49.892;17.884;2022-11-15T10:55:21;98575.81;;;12.89
75658;BMP280;64255;49.892;17.884;2022-11-15T10:58:19;98573.16;;;12.92
75658;BMP280;64255;49.892;17.884;2022-11-15T11:00:46;98576.53;;;12.96
75658;BMP280;64255;49.892;17.884;2022-11-15T11:03:38;98575.03;;;12.95
75658;BMP280;64255;49.892;17.884;2022-11-15T11:06:13;98573.50;;;12.94
75658;BMP280;64255;49.892;17.884;2022-11-15T11:08:59;98566.28;;;12.95
75658;BMP280;64255;49.892;17.884;2022-11-15T11:11:51;98555.22;;;12.96
75658;BMP280;64255;49.892;17.884;2022-11-15T11:14:33;98552.97;;;12.91
75658;BMP280;64255;49.892;17.884;2022-11-15T11:25:34;98535.84;;;12.99
75658;BMP280;64255;49.892;17.884;2022-11-15T11:28:37;98540.81;;;12.94
75658;BMP280;64255;49.892;17.884;2022-11-15T11:34:29;98519.50;;;12.90
75658;BMP280;64255;49.892;17.884;2022-11-15T11:48:44;98510.66;;;13.04
75658;BMP280;64255;49.892;17.884;2022-11-15T11:51:24;98503.41;;;13.05
75658;BMP280;64255;49.892;17.884;2022-11-15T11:54:20;98500.00;;;13.04
75658;BMP280;64255;49.892;17.884;2022-11-15T11:56:50;98503.06;;;12.99
75658;BMP280;64255;49.892;17.884;2022-11-15T11:59:43;98501.94;;;12.96
75658;BMP280;64255;49.892;17.884;2022-11-15T12:02:27;98499.66;;;12.95
75658;BMP280;64255;49.892;17.884;2022-11-15T12:05:26;98498.84;;;13.09
75658;BMP280;64255;49.892;17.884;2022-11-15T12:08:38;98488.94;;;13.06
75658;BMP280;64255;49.892;17.884;2022-11-15T12:11:28;98488.22;;;12.98
75658;BMP280;64255;49.892;17.884;2022-11-15T12:14:02;98490.13;;;13.01
75658;BMP280;64255;49.892;17.884;2022-11-15T12:16:32;98477.19;;;12.99
75658;BMP280;64255;49.892;17.884;2022-11-15T12:19:03;98476.84;;;12.94
75658;BMP280;64255;49.892;17.884;2022-11-15T12:25:03;98468.47;;;12.88
75658;BMP280;64255;49.892;17.884;2022-11-15T12:30:08;98457.78;;;12.99
75658;BMP280;64255;49.892;17.884;2022-11-15T12:32:48;98455.47;;;12.97
75658;BMP280;64255;49.892;17.884;2022-11-15T12:35:37;98457.41;;;13.01
75658;BMP280;64255;49.892;17.884;2022-11-15T12:38:11;98449.75;;;13.03
75658;BMP280;64255;49.892;17.884;2022-11-15T12:41:15;98451.63;;;13.02
75658;BMP280;64255;49.892;17.884;2022-11-15T12:43:45;98445.59;;;12.98
75658;BMP280;64255;49.892;17.884;2022-11-15T12:49:11;98455.78;;;13.10
75658;BMP280;64255;49.892;17.884;2022-11-15T12:52:07;98455.41;;;13.08
75658;BMP280;64255;49.892;17.884;2022-11-15T13:02:43;98441.94;;;13.34
75658;BMP280;64255;49.892;17.884;2022-11-15T13:10:33;98435.31;;;13.53
75658;BMP280;64255;49.892;17.884;2022-11-15T13:13:08;98429.88;;;13.64
75658;BMP280;64255;49.892;17.884;2022-11-15T13:15:58;98422.03;;;13.87
75658;BMP280;64255;49.892;17.884;2022-11-15T13:21:02;98417.31;;;13.61
75658;BMP280;64255;49.892;17.884;2022-11-15T13:23:31;98414.84;;;13.39
75658;BMP280;64255;49.892;17.884;2022-11-15T13:26:12;98420.50;;;13.48
75658;BMP280;64255;49.892;17.884;2022-11-15T13:28:49;98419.41;;;13.38
75658;BMP280;64255;49.892;17.884;2022-11-15T13:31:37;98408.91;;;13.17
75658;BMP280;64255;49.892;17.884;2022-11-15T13:34:31;98415.91;;;12.99
75658;BMP280;64255;49.892;17.884;2022-11-15T13:36:59;98417.94;;;12.77
75658;BMP280;64255;49.892;17.884;2022-11-15T13:39:33;98415.69;;;12.68
75658;BMP280;64255;49.892;17.884;2022-11-15T13:42:00;98409.66;;;12.57
75658;BMP280;64255;49.892;17.884;2022-11-15T13:44:31;98408.91;;;12.53
75658;BMP280;64255;49.892;17.884;2022-11-15T13:49:38;98398.31;;;12.38
75658;BMP280;64255;49.892;17.884;2022-11-15T13:52:10;98393.03;;;12.31
75658;BMP280;64255;49.892;17.884;2022-11-15T13:54:40;98398.78;;;12.22
75658;BMP280;64255;49.892;17.884;2022-11-15T13:57:25;98401.84;;;12.14
75658;BMP280;64255;49.892;17.884;2022-11-15T14:00:03;98391.25;;;12.06
75658;BMP280;64255;49.892;17.884;2022-11-15T14:02:34;98387.81;;;11.99
75658;BMP280;64255;49.892;17.884;2022-11-15T14:10:31;98391.25;;;11.99
75658;BMP280;64255;49.892;17.884;2022-11-15T14:13:00;98389.31;;;12.14
75658;BMP280;64255;49.892;17.884;2022-11-15T14:15:36;98383.59;;;12.16
75658;BMP280;64255;49.892;17.884;2022-11-15T14:18:05;98385.16;;;12.06
75658;BMP280;64255;49.892;17.884;2022-11-15T14:20:36;98385.91;;;12.06
75658;BMP280;64255;49.892;17.884;2022-11-15T14:23:19;98376.44;;;11.98
75658;BMP280;64255;49.892;17.884;2022-11-15T14:25:58;98375.69;;;11.90
75658;BMP280;64255;49.892;17.884;2022-11-15T14:30:57;98370.78;;;11.74
75658;BMP280;64255;49.892;17.884;2022-11-15T14:33:28;98367.38;;;11.74
75658;BMP280;64255;49.892;17.884;2022-11-15T14:36:04;98365.88;;;11.69
75658;BMP280;64255;49.892;17.884;2022-11-15T14:38:31;98361.28;;;11.66
75658;BMP280;64255;49.892;17.884;2022-11-15T14:40:59;98349.13;;;11.65
75658;BMP280;64255;49.892;17.884;2022-11-15T14:43:26;98347.25;;;11.66
75658;BMP280;64255;49.892;17.884;2022-11-15T14:45:54;98349.50;;;11.67
75658;BMP280;64255;49.892;17.884;2022-11-15T14:48:21;98349.13;;;11.72
75658;BMP280;64255;49.892;17.884;2022-11-15T14:50:48;98349.50;;;11.74
75658;BMP280;64255;49.892;17.884;2022-11-15T14:53:17;98340.38;;;11.75
75658;BMP280;64255;49.892;17.884;2022-11-15T14:55:45;98348.00;;;11.70
75658;BMP280;64255;49.892;17.884;2022-11-15T14:58:12;98341.16;;;11.69
75658;BMP280;64255;49.892;17.884;2022-11-15T15:00:41;98337.38;;;11.70
75658;BMP280;64255;49.892;17.884;2022-11-15T15:03:09;98339.66;;;11.68
75658;BMP280;64255;49.892;17.884;2022-11-15T15:05:42;98342.28;;;11.64
75658;BMP280;64255;49.892;17.884;2022-11-15T15:08:10;98334.72;;;11.59
75658;BMP280;64255;49.892;17.884;2022-11-15T15:10:42;98335.84;;;11.58
75658;BMP280;64255;49.892;17.884;2022-11-15T15:13:21;98349.13;;;11.58
75658;BMP280;64255;49.892;17.884;2022-11-15T15:15:51;98343.09;;;11.54
75658;BMP280;64255;49.892;17.884;2022-11-15T15:18:19;98342.72;;;11.52
75658;BMP280;64255;49.892;17.884;2022-11-15T15:20:56;98336.25;;;11.49
75658;BMP280;64255;49.892;17.884;2022-11-15T15:23:24;98335.88;;;11.51
75658;BMP280;64255;49.892;17.884;2022-11-15T15:25:51;98335.53;;;11.45
75658;BMP280;64255;49.892;17.884;2022-11-15T15:28:18;98334.38;;;11.42
75658;BMP280;64255;49.892;17.884;2022-11-15T15:30:45;98337.03;;;11.39
75658;BMP280;64255;49.892;17.884;2022-11-15T15:33:12;98337.41;;;11.37
75658;BMP280;64255;49.892;17.884;2022-11-15T15:35:40;98337.41;;;11.33
75658;BMP280;64255;49.892;17.884;2022-11-15T15:38:11;98340.06;;;11.33
75658;BMP280;64255;49.892;17.884;2022-11-15T15:40:39;98335.50;;;11.34
75658;BMP280;64255;49.892;17.884;2022-11-15T15:43:06;98335.16;;;11.36
75658;BMP280;64255;49.892;17.884;2022-11-15T15:45:37;98335.16;;;11.36
75658;BMP280;64255;49.892;17.884;2022-11-15T15:48:04;98333.22;;;11.36
75658;BMP280;64255;49.892;17.884;2022-11-15T15:50:33;98329.81;;;11.28
75658;BMP280;64255;49.892;17.884;2022-11-15T15:53:03;98334.75;;;11.30
75658;BMP280;64255;49.892;17.884;2022-11-15T15:55:31;98340.47;;;11.36
75658;BMP280;64255;49.892;17.884;2022-11-15T15:57:58;98332.47;;;11.32
75658;BMP280;64255;49.892;17.884;2022-11-15T16:00:25;98334.75;;;11.30
75658;BMP280;64255;49.892;17.884;2022-11-15T16:02:53;98331.34;;;11.29
75658;BMP280;64255;49.892;17.884;2022-11-15T16:05:21;98332.06;;;11.33
75658;BMP280;64255;49.892;17.884;2022-11-15T16:07:50;98326.03;;;11.29
75658;BMP280;64255;49.892;17.884;2022-11-15T16:10:26;98324.16;;;11.23
75658;BMP280;64255;49.892;17.884;2022-11-15T16:12:55;98323.00;;;11.20
75658;BMP280;64255;49.892;17.884;2022-11-15T16:15:29;98333.59;;;11.24
75658;BMP280;64255;49.892;17.884;2022-11-15T16:18:00;98330.56;;;11.29
75658;BMP280;64255;49.892;17.884;2022-11-15T16:23:07;98338.19;;;11.12
75658;BMP280;64255;49.892;17.884;2022-11-15T16:25:55;98331.34;;;11.08
75658;BMP280;64255;49.892;17.884;2022-11-15T16:28:30;98329.44;;;11.08